sensor_id;sensor_type;location;lat;lon;timestamp;P1;durP1;ratioP1;P2;durP2;ratioP2
18090;SDS011;9172;49.948;9.208;2023-10-13T00:01:33;12.33;;;3.57;;
18090;SDS011;9172;49.948;9.208;2023-10-13T00:04:04;11.63;;;3.90;;
18090;SDS011;9172;49.948;9.208;2023-10-13T00:06:34;10.73;;;3.57;;
18090;SDS011;9172;49.948;9.208;2023-10-13T00:09:03;13.47;;;4.30;;
18090;SDS011;9172;49.948;9.208;2023-10-13T00:11:34;9.47;;;3.40;;
18090;SDS011;9172;49.948;9.208;2023-10-13T00:14:03;10.73;;;3.87;;
18090;SDS011;9172;49.948;9.208;2023-10-13T00:16:35;11.53;;;4.50;;
18090;SDS011;9172;49.948;9.208;2023-10-13T00:19:06;7.67;;;3.77;;
18090;SDS011;9172;49.948;9.208;2023-10-13T00:21:37;10.70;;;3.83;;
18090;SDS011;9172;49.948;9.208;2023-10-13T00:24:06;12.30;;;3.80;;
18090;SDS011;9172;49.948;9.208;2023-10-13T00:26:37;12.23;;;4.30;;
18090;SDS011;9172;49.948;9.208;2023-10-13T00:29:07;7.57;;;3.60;;
18090;SDS011;9172;49.948;9.208;2023-10-13T00:31:38;11.00;;;3.63;;
18090;SDS011;9172;49.948;9.208;2023-10-13T00:34:09;13.03;;;3.67;;
18090;SDS011;9172;49.948;9.208;2023-10-13T00:36:38;16.13;;;4.87;;
18090;SDS011;9172;49.948;9.208;2023-10-13T00:39:09;14.23;;;4.77;;
18090;SDS011;9172;49.948;9.208;2023-10-13T00:41:40;10.43;;;3.80;;
18090;SDS011;9172;49.948;9.208;2023-10-13T00:44:18;9.63;;;4.37;;
18090;SDS011;9172;49.948;9.208;2023-10-13T00:46:50;6.93;;;3.30;;
18090;SDS011;9172;49.948;9.208;2023-10-13T00:49:22;8.20;;;3.87;;
18090;SDS011;9172;49.948;9.208;2023-10-13T00:51:51;10.63;;;3.90;;
18090;SDS011;9172;49.948;9.208;2023-10-13T00:54:21;8.87;;;4.10;;
18090;SDS011;9172;49.948;9.208;2023-10-13T00:56:53;10.47;;;3.80;;
18090;SDS011;9172;49.948;9.208;2023-10-13T00:59:26;10.13;;;4.10;;
18090;SDS011;9172;49.948;9.208;2023-10-13T01:01:54;11.77;;;3.90;;
18090;SDS011;9172;49.948;9.208;2023-10-13T01:04:23;8.03;;;3.43;;
18090;SDS011;9172;49.948;9.208;2023-10-13T01:06:53;10.13;;;4.27;;
18090;SDS011;9172;49.948;9.208;2023-10-13T01:09:22;6.73;;;3.60;;
18090;SDS011;9172;49.948;9.208;2023-10-13T01:11:51;12.33;;;3.57;;
18090;SDS011;9172;49.948;9.208;2023-10-13T01:14:20;13.60;;;3.90;;
18090;SDS011;9172;49.948;9.208;2023-10-13T01:16:51;10.47;;;3.83;;
18090;SDS011;9172;49.948;9.208;2023-10-13T01:19:21;8.80;;;3.93;;
18090;SDS011;9172;49.948;9.208;2023-10-13T01:21:51;7.83;;;3.60;;
18090;SDS011;9172;49.948;9.208;2023-10-13T01:24:23;10.47;;;3.53;;
18090;SDS011;9172;49.948;9.208;2023-10-13T01:26:53;9.73;;;3.93;;
18090;SDS011;9172;49.948;9.208;2023-10-13T01:29:21;17.03;;;3.80;;
18090;SDS011;9172;49.948;9.208;2023-10-13T01:31:52;10.10;;;3.70;;
18090;SDS011;9172;49.948;9.208;2023-10-13T01:34:21;10.70;;;4.97;;
18090;SDS011;9172;49.948;9.208;2023-10-13T01:36:49;11.57;;;4.00;;
18090;SDS011;9172;49.948;9.208;2023-10-13T01:39:19;11.80;;;4.13;;
18090;SDS011;9172;49.948;9.208;2023-10-13T01:41:50;8.80;;;4.00;;
18090;SDS011;9172;49.948;9.208;2023-10-13T01:44:21;9.20;;;4.33;;
18090;SDS011;9172;49.948;9.208;2023-10-13T01:46:50;13.47;;;4.27;;
18090;SDS011;9172;49.948;9.208;2023-10-13T01:49:19;11.33;;;3.30;;
18090;SDS011;9172;49.948;9.208;2023-10-13T01:51:49;9.77;;;3.93;;
18090;SDS011;9172;49.948;9.208;2023-10-13T01:54:17;11.00;;;3.60;;
18090;SDS011;9172;49.948;9.208;2023-10-13T01:56:47;9.80;;;3.83;;
18090;SDS011;9172;49.948;9.208;2023-10-13T01:59:16;11.00;;;4.40;;
18090;SDS011;9172;49.948;9.208;2023-10-13T02:01:45;8.93;;;4.00;;
18090;SDS011;9172;49.948;9.208;2023-10-13T02:04:13;8.63;;;4.13;;
18090;SDS011;9172;49.948;9.208;2023-10-13T02:06:44;7.57;;;3.57;;
18090;SDS011;9172;49.948;9.208;2023-10-13T02:09:12;10.00;;;3.70;;
18090;SDS011;9172;49.948;9.208;2023-10-13T02:11:43;11.10;;;4.40;;
18090;SDS011;9172;49.948;9.208;2023-10-13T02:14:12;9.50;;;3.93;;
18090;SDS011;9172;49.948;9.208;2023-10-13T02:16:43;14.60;;;3.93;;
18090;SDS011;9172;49.948;9.208;2023-10-13T02:19:15;8.63;;;3.60;;
18090;SDS011;9172;49.948;9.208;2023-10-13T02:21:45;14.03;;;4.23;;
18090;SDS011;9172;49.948;9.208;2023-10-13T02:24:16;13.27;;;4.20;;
18090;SDS011;9172;49.948;9.208;2023-10-13T02:26:44;8.17;;;4.23;;
18090;SDS011;9172;49.948;9.208;2023-10-13T02:29:13;9.80;;;3.67;;
18090;SDS011;9172;49.948;9.208;2023-10-13T02:31:43;12.57;;;4.20;;
18090;SDS011;9172;49.948;9.208;2023-10-13T02:34:14;16.47;;;4.97;;
18090;SDS011;9172;49.948;9.208;2023-10-13T02:36:44;8.87;;;3.70;;
18090;SDS011;9172;49.948;9.208;2023-10-13T02:39:15;7.10;;;3.40;;
18090;SDS011;9172;49.948;9.208;2023-10-13T02:41:43;8.27;;;3.03;;
18090;SDS011;9172;49.948;9.208;2023-10-13T02:44:14;9.17;;;4.13;;
18090;SDS011;9172;49.948;9.208;2023-10-13T02:46:48;13.87;;;3.50;;
18090;SDS011;9172;49.948;9.208;2023-10-13T02:49:17;10.83;;;3.33;;
18090;SDS011;9172;49.948;9.208;2023-10-13T02:51:46;9.87;;;3.87;;
18090;SDS011;9172;49.948;9.208;2023-10-13T02:54:14;13.20;;;4.10;;
18090;SDS011;9172;49.948;9.208;2023-10-13T02:56:44;8.77;;;3.73;;
18090;SDS011;9172;49.948;9.208;2023-10-13T02:59:17;7.47;;;3.07;;
18090;SDS011;9172;49.948;9.208;2023-10-13T03:01:48;8.67;;;3.70;;
18090;SDS011;9172;49.948;9.208;2023-10-13T03:04:18;11.83;;;3.57;;
18090;SDS011;9172;49.948;9.208;2023-10-13T03:06:49;17.00;;;4.20;;
18090;SDS011;9172;49.948;9.208;2023-10-13T03:09:17;7.53;;;3.80;;
18090;SDS011;9172;49.948;9.208;2023-10-13T03:11:48;9.63;;;3.90;;
18090;SDS011;9172;49.948;9.208;2023-10-13T03:14:17;6.83;;;3.83;;
18090;SDS011;9172;49.948;9.208;2023-10-13T03:16:52;10.60;;;3.53;;
18090;SDS011;9172;49.948;9.208;2023-10-13T03:19:21;11.10;;;3.80;;
18090;SDS011;9172;49.948;9.208;2023-10-13T03:21:51;10.37;;;3.43;;
18090;SDS011;9172;49.948;9.208;2023-10-13T03:24:23;12.40;;;3.50;;
18090;SDS011;9172;49.948;9.208;2023-10-13T03:27:00;10.67;;;3.57;;
18090;SDS011;9172;49.948;9.208;2023-10-13T03:29:33;9.03;;;4.03;;
18090;SDS011;9172;49.948;9.208;2023-10-13T03:32:03;11.00;;;4.00;;
18090;SDS011;9172;49.948;9.208;2023-10-13T03:34:36;17.03;;;3.73;;
18090;SDS011;9172;49.948;9.208;2023-10-13T03:37:09;21.20;;;3.70;;
18090;SDS011;9172;49.948;9.208;2023-10-13T03:39:40;8.07;;;4.00;;
18090;SDS011;9172;49.948;9.208;2023-10-13T03:42:10;13.70;;;3.73;;
18090;SDS011;9172;49.948;9.208;2023-10-13T03:44:42;10.47;;;3.90;;
18090;SDS011;9172;49.948;9.208;2023-10-13T03:47:12;17.53;;;4.17;;
18090;SDS011;9172;49.948;9.208;2023-10-13T03:49:49;12.63;;;3.90;;
18090;SDS011;9172;49.948;9.208;2023-10-13T03:52:17;9.40;;;3.40;;
18090;SDS011;9172;49.948;9.208;2023-10-13T03:54:48;9.27;;;3.50;;
18090;SDS011;9172;49.948;9.208;2023-10-13T03:57:17;7.80;;;3.90;;
18090;SDS011;9172;49.948;9.208;2023-10-13T03:59:47;10.13;;;4.00;;
18090;SDS011;9172;49.948;9.208;2023-10-13T04:02:16;10.13;;;3.60;;
18090;SDS011;9172;49.948;9.208;2023-10-13T04:04:47;10.27;;;4.13;;
18090;SDS011;9172;49.948;9.208;2023-10-13T04:07:17;16.23;;;4.23;;
18090;SDS011;9172;49.948;9.208;2023-10-13T04:10:08;7.33;;;3.33;;
18090;SDS011;9172;49.948;9.208;2023-10-13T04:12:47;10.23;;;3.47;;
18090;SDS011;9172;49.948;9.208;2023-10-13T04:15:34;8.37;;;4.13;;
18090;SDS011;9172;49.948;9.208;2023-10-13T04:18:10;13.37;;;3.77;;
18090;SDS011;9172;49.948;9.208;2023-10-13T04:20:44;8.70;;;3.77;;
18090;SDS011;9172;49.948;9.208;2023-10-13T04:23:14;7.40;;;3.73;;
18090;SDS011;9172;49.948;9.208;2023-10-13T04:25:47;12.03;;;4.10;;
18090;SDS011;9172;49.948;9.208;2023-10-13T04:28:33;10.90;;;4.23;;
18090;SDS011;9172;49.948;9.208;2023-10-13T04:31:03;11.90;;;3.70;;
18090;SDS011;9172;49.948;9.208;2023-10-13T04:33:54;12.87;;;3.63;;
18090;SDS011;9172;49.948;9.208;2023-10-13T04:36:24;12.67;;;3.67;;
18090;SDS011;9172;49.948;9.208;2023-10-13T04:39:07;16.97;;;3.70;;
18090;SDS011;9172;49.948;9.208;2023-10-13T04:41:40;8.73;;;3.90;;
18090;SDS011;9172;49.948;9.208;2023-10-13T04:44:17;13.33;;;4.13;;
18090;SDS011;9172;49.948;9.208;2023-10-13T04:47:04;13.57;;;3.90;;
18090;SDS011;9172;49.948;9.208;2023-10-13T04:49:38;15.83;;;4.10;;
18090;SDS011;9172;49.948;9.208;2023-10-13T04:52:15;14.00;;;4.43;;
18090;SDS011;9172;49.948;9.208;2023-10-13T04:54:55;13.17;;;3.90;;
18090;SDS011;9172;49.948;9.208;2023-10-13T04:57:26;10.33;;;4.23;;
18090;SDS011;9172;49.948;9.208;2023-10-13T05:00:00;9.50;;;3.70;;
18090;SDS011;9172;49.948;9.208;2023-10-13T05:02:52;22.67;;;4.50;;
18090;SDS011;9172;49.948;9.208;2023-10-13T05:05:24;11.77;;;4.03;;
18090;SDS011;9172;49.948;9.208;2023-10-13T05:08:14;14.63;;;3.83;;
18090;SDS011;9172;49.948;9.208;2023-10-13T05:11:03;9.23;;;3.70;;
18090;SDS011;9172;49.948;9.208;2023-10-13T05:13:50;8.37;;;4.13;;
18090;SDS011;9172;49.948;9.208;2023-10-13T05:16:36;8.27;;;3.80;;
18090;SDS011;9172;49.948;9.208;2023-10-13T05:19:23;10.83;;;3.90;;
18090;SDS011;9172;49.948;9.208;2023-10-13T05:22:10;14.53;;;3.87;;
18090;SDS011;9172;49.948;9.208;2023-10-13T05:24:56;11.00;;;4.00;;
18090;SDS011;9172;49.948;9.208;2023-10-13T05:27:43;11.37;;;3.70;;
18090;SDS011;9172;49.948;9.208;2023-10-13T05:30:29;8.50;;;3.50;;
18090;SDS011;9172;49.948;9.208;2023-10-13T05:33:16;8.77;;;4.07;;
18090;SDS011;9172;49.948;9.208;2023-10-13T05:36:13;13.33;;;4.10;;
18090;SDS011;9172;49.948;9.208;2023-10-13T05:39:01;15.90;;;3.80;;
18090;SDS011;9172;49.948;9.208;2023-10-13T05:41:48;15.87;;;4.23;;
18090;SDS011;9172;49.948;9.208;2023-10-13T05:44:34;11.30;;;4.03;;
18090;SDS011;9172;49.948;9.208;2023-10-13T05:47:16;8.53;;;4.20;;
18090;SDS011;9172;49.948;9.208;2023-10-13T05:50:09;9.60;;;3.87;;
18090;SDS011;9172;49.948;9.208;2023-10-13T05:52:57;13.83;;;3.43;;
18090;SDS011;9172;49.948;9.208;2023-10-13T05:55:43;10.07;;;3.40;;
18090;SDS011;9172;49.948;9.208;2023-10-13T05:58:30;17.57;;;4.87;;
18090;SDS011;9172;49.948;9.208;2023-10-13T06:01:16;11.53;;;3.73;;
18090;SDS011;9172;49.948;9.208;2023-10-13T06:04:03;13.50;;;3.93;;
18090;SDS011;9172;49.948;9.208;2023-10-13T06:06:50;7.50;;;3.57;;
18090;SDS011;9172;49.948;9.208;2023-10-13T06:09:36;15.10;;;4.30;;
18090;SDS011;9172;49.948;9.208;2023-10-13T06:12:23;7.60;;;3.50;;
18090;SDS011;9172;49.948;9.208;2023-10-13T06:15:09;11.10;;;3.90;;
18090;SDS011;9172;49.948;9.208;2023-10-13T06:17:57;9.10;;;4.00;;
18090;SDS011;9172;49.948;9.208;2023-10-13T06:20:43;9.83;;;4.00;;
18090;SDS011;9172;49.948;9.208;2023-10-13T06:23:30;12.63;;;3.83;;
18090;SDS011;9172;49.948;9.208;2023-10-13T06:26:16;8.80;;;3.37;;
18090;SDS011;9172;49.948;9.208;2023-10-13T06:29:03;10.07;;;3.97;;
18090;SDS011;9172;49.948;9.208;2023-10-13T06:31:34;11.07;;;3.33;;
18090;SDS011;9172;49.948;9.208;2023-10-13T06:34:03;10.63;;;3.43;;
18090;SDS011;9172;49.948;9.208;2023-10-13T06:36:32;7.33;;;3.13;;
18090;SDS011;9172;49.948;9.208;2023-10-13T06:39:00;13.03;;;3.97;;
18090;SDS011;9172;49.948;9.208;2023-10-13T06:41:49;10.67;;;3.33;;
18090;SDS011;9172;49.948;9.208;2023-10-13T06:44:19;6.43;;;3.20;;
18090;SDS011;9172;49.948;9.208;2023-10-13T06:46:49;9.03;;;3.10;;
18090;SDS011;9172;49.948;9.208;2023-10-13T06:49:18;13.17;;;3.10;;
18090;SDS011;9172;49.948;9.208;2023-10-13T06:51:49;16.00;;;4.13;;
18090;SDS011;9172;49.948;9.208;2023-10-13T06:54:17;10.30;;;4.03;;
18090;SDS011;9172;49.948;9.208;2023-10-13T06:56:46;12.70;;;3.87;;
18090;SDS011;9172;49.948;9.208;2023-10-13T06:59:17;9.13;;;3.10;;
18090;SDS011;9172;49.948;9.208;2023-10-13T07:01:47;9.97;;;3.87;;
18090;SDS011;9172;49.948;9.208;2023-10-13T07:04:18;10.67;;;3.63;;
18090;SDS011;9172;49.948;9.208;2023-10-13T07:06:48;11.77;;;3.13;;
18090;SDS011;9172;49.948;9.208;2023-10-13T07:09:17;10.70;;;3.87;;
18090;SDS011;9172;49.948;9.208;2023-10-13T07:12:06;7.60;;;3.17;;
18090;SDS011;9172;49.948;9.208;2023-10-13T07:14:37;6.40;;;3.30;;
18090;SDS011;9172;49.948;9.208;2023-10-13T07:17:06;8.13;;;3.97;;
18090;SDS011;9172;49.948;9.208;2023-10-13T07:19:35;6.83;;;3.00;;
18090;SDS011;9172;49.948;9.208;2023-10-13T07:22:05;14.83;;;3.70;;
18090;SDS011;9172;49.948;9.208;2023-10-13T07:24:37;9.90;;;3.40;;
18090;SDS011;9172;49.948;9.208;2023-10-13T07:27:06;8.73;;;3.20;;
18090;SDS011;9172;49.948;9.208;2023-10-13T07:29:35;10.47;;;3.40;;
18090;SDS011;9172;49.948;9.208;2023-10-13T07:32:04;12.43;;;3.27;;
18090;SDS011;9172;49.948;9.208;2023-10-13T07:34:35;7.97;;;3.03;;
18090;SDS011;9172;49.948;9.208;2023-10-13T07:37:05;12.10;;;3.27;;
18090;SDS011;9172;49.948;9.208;2023-10-13T07:39:36;19.20;;;3.20;;
18090;SDS011;9172;49.948;9.208;2023-10-13T07:42:06;14.23;;;3.77;;
18090;SDS011;9172;49.948;9.208;2023-10-13T07:44:36;12.50;;;3.17;;
18090;SDS011;9172;49.948;9.208;2023-10-13T07:47:06;10.50;;;3.50;;
18090;SDS011;9172;49.948;9.208;2023-10-13T07:49:37;8.87;;;3.33;;
18090;SDS011;9172;49.948;9.208;2023-10-13T07:52:07;9.10;;;3.20;;
18090;SDS011;9172;49.948;9.208;2023-10-13T07:54:49;12.40;;;3.93;;
18090;SDS011;9172;49.948;9.208;2023-10-13T07:57:24;12.27;;;3.00;;
18090;SDS011;9172;49.948;9.208;2023-10-13T07:59:55;13.00;;;3.67;;
18090;SDS011;9172;49.948;9.208;2023-10-13T08:02:35;8.83;;;2.93;;
18090;SDS011;9172;49.948;9.208;2023-10-13T08:05:17;12.60;;;3.40;;
18090;SDS011;9172;49.948;9.208;2023-10-13T08:07:53;9.60;;;3.10;;
18090;SDS011;9172;49.948;9.208;2023-10-13T08:10:22;13.80;;;3.53;;
18090;SDS011;9172;49.948;9.208;2023-10-13T08:12:53;12.10;;;3.70;;
18090;SDS011;9172;49.948;9.208;2023-10-13T08:15:23;10.73;;;3.80;;
18090;SDS011;9172;49.948;9.208;2023-10-13T08:17:58;7.77;;;3.07;;
18090;SDS011;9172;49.948;9.208;2023-10-13T08:20:31;10.73;;;3.63;;
18090;SDS011;9172;49.948;9.208;2023-10-13T08:23:01;8.10;;;3.23;;
18090;SDS011;9172;49.948;9.208;2023-10-13T08:25:39;9.80;;;3.13;;
18090;SDS011;9172;49.948;9.208;2023-10-13T08:28:39;12.27;;;3.83;;
18090;SDS011;9172;49.948;9.208;2023-10-13T08:31:15;4.53;;;2.90;;
18090;SDS011;9172;49.948;9.208;2023-10-13T08:33:48;8.07;;;3.27;;
18090;SDS011;9172;49.948;9.208;2023-10-13T08:36:17;7.90;;;3.30;;
18090;SDS011;9172;49.948;9.208;2023-10-13T08:38:55;7.17;;;3.47;;
18090;SDS011;9172;49.948;9.208;2023-10-13T08:41:23;9.00;;;3.87;;
18090;SDS011;9172;49.948;9.208;2023-10-13T08:43:56;8.37;;;3.30;;
18090;SDS011;9172;49.948;9.208;2023-10-13T08:46:34;8.60;;;3.17;;
18090;SDS011;9172;49.948;9.208;2023-10-13T08:49:30;6.20;;;3.40;;
18090;SDS011;9172;49.948;9.208;2023-10-13T08:52:09;9.57;;;2.93;;
18090;SDS011;9172;49.948;9.208;2023-10-13T08:54:57;9.33;;;3.63;;
18090;SDS011;9172;49.948;9.208;2023-10-13T08:57:33;10.20;;;3.53;;
18090;SDS011;9172;49.948;9.208;2023-10-13T09:00:02;8.50;;;3.23;;
18090;SDS011;9172;49.948;9.208;2023-10-13T09:02:49;4.93;;;3.03;;
18090;SDS011;9172;49.948;9.208;2023-10-13T09:05:28;9.73;;;3.20;;
18090;SDS011;9172;49.948;9.208;2023-10-13T09:08:24;7.57;;;2.93;;
18090;SDS011;9172;49.948;9.208;2023-10-13T09:10:57;8.20;;;3.20;;
18090;SDS011;9172;49.948;9.208;2023-10-13T09:13:34;6.23;;;3.33;;
18090;SDS011;9172;49.948;9.208;2023-10-13T09:16:09;8.90;;;3.20;;
18090;SDS011;9172;49.948;9.208;2023-10-13T09:18:50;6.63;;;3.20;;
18090;SDS011;9172;49.948;9.208;2023-10-13T09:21:18;6.90;;;3.23;;
18090;SDS011;9172;49.948;9.208;2023-10-13T09:23:58;10.57;;;3.03;;
18090;SDS011;9172;49.948;9.208;2023-10-13T09:26:44;5.70;;;2.80;;
18090;SDS011;9172;49.948;9.208;2023-10-13T09:29:16;6.13;;;3.20;;
18090;SDS011;9172;49.948;9.208;2023-10-13T09:31:46;5.17;;;3.20;;
18090;SDS011;9172;49.948;9.208;2023-10-13T09:34:20;5.40;;;2.93;;
18090;SDS011;9172;49.948;9.208;2023-10-13T09:36:52;8.77;;;3.70;;
18090;SDS011;9172;49.948;9.208;2023-10-13T09:39:24;5.93;;;2.93;;
18090;SDS011;9172;49.948;9.208;2023-10-13T09:42:09;9.20;;;3.10;;
18090;SDS011;9172;49.948;9.208;2023-10-13T09:44:39;7.30;;;3.27;;
18090;SDS011;9172;49.948;9.208;2023-10-13T09:47:09;6.10;;;3.30;;
18090;SDS011;9172;49.948;9.208;2023-10-13T09:49:44;7.13;;;2.70;;
18090;SDS011;9172;49.948;9.208;2023-10-13T09:52:16;8.77;;;3.03;;
18090;SDS011;9172;49.948;9.208;2023-10-13T09:54:53;6.67;;;3.03;;
18090;SDS011;9172;49.948;9.208;2023-10-13T09:57:32;11.27;;;3.40;;
18090;SDS011;9172;49.948;9.208;2023-10-13T10:00:12;7.23;;;2.83;;
18090;SDS011;9172;49.948;9.208;2023-10-13T10:02:56;10.53;;;3.63;;
18090;SDS011;9172;49.948;9.208;2023-10-13T10:05:27;4.53;;;2.77;;
18090;SDS011;9172;49.948;9.208;2023-10-13T10:07:57;4.73;;;2.77;;
18090;SDS011;9172;49.948;9.208;2023-10-13T10:10:31;6.50;;;2.67;;
18090;SDS011;9172;49.948;9.208;2023-10-13T10:13:05;8.00;;;3.30;;
18090;SDS011;9172;49.948;9.208;2023-10-13T10:15:40;8.67;;;3.43;;
18090;SDS011;9172;49.948;9.208;2023-10-13T10:18:20;8.67;;;3.07;;
18090;SDS011;9172;49.948;9.208;2023-10-13T10:20:51;5.77;;;2.80;;
18090;SDS011;9172;49.948;9.208;2023-10-13T10:23:24;7.00;;;2.50;;
18090;SDS011;9172;49.948;9.208;2023-10-13T10:25:55;11.50;;;2.90;;
18090;SDS011;9172;49.948;9.208;2023-10-13T10:28:35;8.93;;;3.10;;
18090;SDS011;9172;49.948;9.208;2023-10-13T10:31:05;9.27;;;3.03;;
18090;SDS011;9172;49.948;9.208;2023-10-13T10:33:36;12.57;;;3.50;;
18090;SDS011;9172;49.948;9.208;2023-10-13T10:36:05;7.57;;;3.50;;
18090;SDS011;9172;49.948;9.208;2023-10-13T10:38:38;7.20;;;2.83;;
18090;SDS011;9172;49.948;9.208;2023-10-13T10:41:08;8.87;;;2.87;;
18090;SDS011;9172;49.948;9.208;2023-10-13T10:43:39;9.40;;;2.90;;
18090;SDS011;9172;49.948;9.208;2023-10-13T10:46:13;6.47;;;3.07;;
18090;SDS011;9172;49.948;9.208;2023-10-13T10:48:43;6.07;;;2.87;;
18090;SDS011;9172;49.948;9.208;2023-10-13T10:51:12;6.97;;;2.93;;
18090;SDS011;9172;49.948;9.208;2023-10-13T10:53:43;5.27;;;2.60;;
18090;SDS011;9172;49.948;9.208;2023-10-13T10:56:12;5.30;;;2.80;;
18090;SDS011;9172;49.948;9.208;2023-10-13T10:58:49;6.03;;;2.80;;
18090;SDS011;9172;49.948;9.208;2023-10-13T11:01:21;11.83;;;3.10;;
18090;SDS011;9172;49.948;9.208;2023-10-13T11:03:54;11.40;;;3.23;;
18090;SDS011;9172;49.948;9.208;2023-10-13T11:06:24;8.37;;;2.83;;
18090;SDS011;9172;49.948;9.208;2023-10-13T11:09:03;7.73;;;3.37;;
18090;SDS011;9172;49.948;9.208;2023-10-13T11:11:36;7.67;;;3.00;;
18090;SDS011;9172;49.948;9.208;2023-10-13T11:14:06;9.67;;;3.17;;
18090;SDS011;9172;49.948;9.208;2023-10-13T11:16:46;9.50;;;3.00;;
18090;SDS011;9172;49.948;9.208;2023-10-13T11:19:20;6.63;;;2.47;;
18090;SDS011;9172;49.948;9.208;2023-10-13T11:21:54;8.37;;;2.60;;
18090;SDS011;9172;49.948;9.208;2023-10-13T11:24:23;7.10;;;2.97;;
18090;SDS011;9172;49.948;9.208;2023-10-13T11:26:52;6.70;;;3.17;;
18090;SDS011;9172;49.948;9.208;2023-10-13T11:29:31;5.33;;;2.53;;
18090;SDS011;9172;49.948;9.208;2023-10-13T11:32:06;6.03;;;2.47;;
18090;SDS011;9172;49.948;9.208;2023-10-13T11:34:37;6.03;;;2.87;;
18090;SDS011;9172;49.948;9.208;2023-10-13T11:37:06;5.90;;;3.10;;
18090;SDS011;9172;49.948;9.208;2023-10-13T11:39:57;6.57;;;2.80;;
18090;SDS011;9172;49.948;9.208;2023-10-13T11:42:25;6.93;;;2.93;;
18090;SDS011;9172;49.948;9.208;2023-10-13T11:44:54;6.67;;;3.00;;
18090;SDS011;9172;49.948;9.208;2023-10-13T11:47:25;7.30;;;3.00;;
18090;SDS011;9172;49.948;9.208;2023-10-13T11:50:01;10.57;;;3.37;;
18090;SDS011;9172;49.948;9.208;2023-10-13T11:52:31;10.43;;;3.00;;
18090;SDS011;9172;49.948;9.208;2023-10-13T11:55:00;5.67;;;2.97;;
18090;SDS011;9172;49.948;9.208;2023-10-13T11:57:29;7.50;;;3.03;;
18090;SDS011;9172;49.948;9.208;2023-10-13T11:59:57;7.33;;;3.33;;
18090;SDS011;9172;49.948;9.208;2023-10-13T12:02:44;7.87;;;3.37;;
18090;SDS011;9172;49.948;9.208;2023-10-13T12:05:32;5.70;;;3.03;;
18090;SDS011;9172;49.948;9.208;2023-10-13T12:08:06;5.60;;;3.20;;
18090;SDS011;9172;49.948;9.208;2023-10-13T12:10:36;6.33;;;2.87;;
18090;SDS011;9172;49.948;9.208;2023-10-13T12:13:07;7.93;;;3.60;;
18090;SDS011;9172;49.948;9.208;2023-10-13T12:15:37;10.77;;;3.23;;
18090;SDS011;9172;49.948;9.208;2023-10-13T12:18:15;5.43;;;3.20;;
18090;SDS011;9172;49.948;9.208;2023-10-13T12:20:45;8.63;;;3.07;;
18090;SDS011;9172;49.948;9.208;2023-10-13T12:23:15;9.33;;;2.67;;
18090;SDS011;9172;49.948;9.208;2023-10-13T12:25:45;5.87;;;2.90;;
18090;SDS011;9172;49.948;9.208;2023-10-13T12:28:27;6.87;;;3.33;;
18090;SDS011;9172;49.948;9.208;2023-10-13T12:31:02;9.50;;;2.97;;
18090;SDS011;9172;49.948;9.208;2023-10-13T12:33:39;12.63;;;3.67;;
18090;SDS011;9172;49.948;9.208;2023-10-13T12:36:07;13.20;;;4.80;;
18090;SDS011;9172;49.948;9.208;2023-10-13T12:38:38;3.87;;;2.60;;
18090;SDS011;9172;49.948;9.208;2023-10-13T12:41:26;12.60;;;3.10;;
18090;SDS011;9172;49.948;9.208;2023-10-13T12:44:12;5.53;;;2.50;;
18090;SDS011;9172;49.948;9.208;2023-10-13T12:46:59;8.53;;;2.80;;
18090;SDS011;9172;49.948;9.208;2023-10-13T12:49:46;4.90;;;2.77;;
18090;SDS011;9172;49.948;9.208;2023-10-13T12:52:33;5.33;;;2.60;;
18090;SDS011;9172;49.948;9.208;2023-10-13T12:55:02;8.50;;;2.67;;
18090;SDS011;9172;49.948;9.208;2023-10-13T12:57:36;11.03;;;2.80;;
18090;SDS011;9172;49.948;9.208;2023-10-13T13:00:11;6.83;;;2.97;;
18090;SDS011;9172;49.948;9.208;2023-10-13T13:02:45;8.77;;;2.70;;
18090;SDS011;9172;49.948;9.208;2023-10-13T13:05:13;9.77;;;3.13;;
18090;SDS011;9172;49.948;9.208;2023-10-13T13:07:42;7.67;;;2.47;;
18090;SDS011;9172;49.948;9.208;2023-10-13T13:10:13;12.20;;;2.97;;
18090;SDS011;9172;49.948;9.208;2023-10-13T13:12:42;4.50;;;2.87;;
18090;SDS011;9172;49.948;9.208;2023-10-13T13:15:10;7.27;;;2.90;;
18090;SDS011;9172;49.948;9.208;2023-10-13T13:17:41;5.83;;;2.40;;
18090;SDS011;9172;49.948;9.208;2023-10-13T13:20:10;7.13;;;2.63;;
18090;SDS011;9172;49.948;9.208;2023-10-13T13:22:41;8.73;;;2.70;;
18090;SDS011;9172;49.948;9.208;2023-10-13T13:25:09;6.17;;;3.02;;
18090;SDS011;9172;49.948;9.208;2023-10-13T13:27:38;6.30;;;3.00;;
18090;SDS011;9172;49.948;9.208;2023-10-13T13:30:09;5.93;;;2.77;;
18090;SDS011;9172;49.948;9.208;2023-10-13T13:32:39;7.25;;;2.60;;
18090;SDS011;9172;49.948;9.208;2023-10-13T13:35:07;3.57;;;2.23;;
18090;SDS011;9172;49.948;9.208;2023-10-13T13:37:38;4.33;;;2.57;;
18090;SDS011;9172;49.948;9.208;2023-10-13T13:40:10;6.53;;;3.20;;
18090;SDS011;9172;49.948;9.208;2023-10-13T13:42:42;5.53;;;2.10;;
18090;SDS011;9172;49.948;9.208;2023-10-13T13:45:12;6.62;;;2.90;;
18090;SDS011;9172;49.948;9.208;2023-10-13T13:47:45;10.48;;;2.60;;
18090;SDS011;9172;49.948;9.208;2023-10-13T13:50:15;5.83;;;2.43;;
18090;SDS011;9172;49.948;9.208;2023-10-13T13:52:46;6.58;;;2.30;;
18090;SDS011;9172;49.948;9.208;2023-10-13T13:55:14;6.45;;;2.80;;
18090;SDS011;9172;49.948;9.208;2023-10-13T13:57:43;6.87;;;2.67;;
18090;SDS011;9172;49.948;9.208;2023-10-13T14:00:13;6.97;;;3.13;;
18090;SDS011;9172;49.948;9.208;2023-10-13T14:02:44;8.77;;;3.50;;
18090;SDS011;9172;49.948;9.208;2023-10-13T14:05:14;10.10;;;3.08;;
18090;SDS011;9172;49.948;9.208;2023-10-13T14:07:43;8.20;;;2.97;;
18090;SDS011;9172;49.948;9.208;2023-10-13T14:10:18;6.60;;;2.30;;
18090;SDS011;9172;49.948;9.208;2023-10-13T14:13:00;5.40;;;2.70;;
18090;SDS011;9172;49.948;9.208;2023-10-13T14:15:34;7.50;;;3.07;;
18090;SDS011;9172;49.948;9.208;2023-10-13T14:18:08;6.67;;;2.30;;
18090;SDS011;9172;49.948;9.208;2023-10-13T14:20:38;7.20;;;2.77;;
18090;SDS011;9172;49.948;9.208;2023-10-13T14:23:08;7.50;;;2.55;;
18090;SDS011;9172;49.948;9.208;2023-10-13T14:25:38;7.27;;;2.57;;
18090;SDS011;9172;49.948;9.208;2023-10-13T14:28:09;7.30;;;2.57;;
18090;SDS011;9172;49.948;9.208;2023-10-13T14:30:40;10.10;;;2.70;;
18090;SDS011;9172;49.948;9.208;2023-10-13T14:33:08;5.70;;;2.20;;
18090;SDS011;9172;49.948;9.208;2023-10-13T14:35:37;8.70;;;2.92;;
18090;SDS011;9172;49.948;9.208;2023-10-13T14:38:06;8.23;;;3.45;;
18090;SDS011;9172;49.948;9.208;2023-10-13T14:40:34;6.45;;;2.75;;
18090;SDS011;9172;49.948;9.208;2023-10-13T14:43:03;7.62;;;2.77;;
18090;SDS011;9172;49.948;9.208;2023-10-13T14:45:32;5.80;;;2.70;;
18090;SDS011;9172;49.948;9.208;2023-10-13T14:48:02;6.80;;;3.03;;
18090;SDS011;9172;49.948;9.208;2023-10-13T14:50:33;12.57;;;2.67;;
18090;SDS011;9172;49.948;9.208;2023-10-13T14:53:05;7.00;;;2.70;;
18090;SDS011;9172;49.948;9.208;2023-10-13T14:55:34;8.75;;;2.52;;
18090;SDS011;9172;49.948;9.208;2023-10-13T14:58:05;5.20;;;2.77;;
18090;SDS011;9172;49.948;9.208;2023-10-13T15:00:34;6.17;;;2.87;;
18090;SDS011;9172;49.948;9.208;2023-10-13T15:03:03;5.43;;;2.10;;
18090;SDS011;9172;49.948;9.208;2023-10-13T15:05:32;6.07;;;2.40;;
18090;SDS011;9172;49.948;9.208;2023-10-13T15:08:02;7.23;;;2.90;;
18090;SDS011;9172;49.948;9.208;2023-10-13T15:10:32;5.97;;;2.50;;
18090;SDS011;9172;49.948;9.208;2023-10-13T15:13:03;5.20;;;2.50;;
18090;SDS011;9172;49.948;9.208;2023-10-13T15:15:31;6.50;;;2.90;;
18090;SDS011;9172;49.948;9.208;2023-10-13T15:18:02;6.33;;;2.40;;
18090;SDS011;9172;49.948;9.208;2023-10-13T15:20:31;5.27;;;2.50;;
18090;SDS011;9172;49.948;9.208;2023-10-13T15:23:03;6.80;;;3.20;;
18090;SDS011;9172;49.948;9.208;2023-10-13T15:25:33;10.23;;;3.30;;
18090;SDS011;9172;49.948;9.208;2023-10-13T15:28:07;6.23;;;3.20;;
18090;SDS011;9172;49.948;9.208;2023-10-13T15:30:36;7.63;;;3.83;;
18090;SDS011;9172;49.948;9.208;2023-10-13T15:33:11;5.83;;;2.70;;
18090;SDS011;9172;49.948;9.208;2023-10-13T15:35:40;5.47;;;3.07;;